createdAt,value
2023-08-14T00:00:42.416Z,0.90
2023-08-14T00:03:08.944Z,1.02
2023-08-14T00:05:35.607Z,1.25
2023-08-14T00:08:02.041Z,1.20
2023-08-14T00:10:28.517Z,1.40
2023-08-14T00:12:54.964Z,0.73
2023-08-14T00:15:21.707Z,0.75
2023-08-14T00:17:48.234Z,0.70
2023-08-14T00:20:14.726Z,0.93
2023-08-14T00:22:41.249Z,0.73
2023-08-14T00:25:08.149Z,0.70
2023-08-14T00:27:34.595Z,0.82
2023-08-14T00:30:02.374Z,0.93
2023-08-14T00:32:28.825Z,0.93
2023-08-14T00:34:55.268Z,1.10
2023-08-14T00:37:24.020Z,1.00
2023-08-14T00:39:50.439Z,1.23
2023-08-14T00:42:17.017Z,0.95
2023-08-14T00:44:43.619Z,1.60
2023-08-14T00:47:10.132Z,1.50
2023-08-14T00:49:36.607Z,1.60
2023-08-14T00:52:03.249Z,1.35
2023-08-14T00:54:29.914Z,1.40
2023-08-14T00:56:56.501Z,1.93
2023-08-14T00:59:23.199Z,1.83
2023-08-14T01:01:49.692Z,2.78
2023-08-14T01:04:16.191Z,1.73
2023-08-14T01:06:43.479Z,1.85
2023-08-14T01:09:10.923Z,1.70
2023-08-14T01:11:49.015Z,1.80
2023-08-14T01:14:29.813Z,1.98
2023-08-14T01:17:02.424Z,1.80
2023-08-14T01:19:40.738Z,1.33
2023-08-14T01:22:34.797Z,1.50
2023-08-14T01:25:20.479Z,1.40
2023-08-14T01:27:47.366Z,1.40
2023-08-14T01:30:13.832Z,1.63
2023-08-14T01:32:40.295Z,2.00
2023-08-14T01:35:07.673Z,2.03
2023-08-14T01:37:43.634Z,1.48
2023-08-14T01:40:43.966Z,1.52
2023-08-14T01:43:15.809Z,1.45
2023-08-14T01:45:42.462Z,1.27
2023-08-14T01:48:11.007Z,1.13
2023-08-14T01:50:39.557Z,1.65
2023-08-14T01:53:07.597Z,1.42
2023-08-14T01:55:34.308Z,1.27
2023-08-14T01:58:01.470Z,1.20
2023-08-14T02:00:30.317Z,1.10
2023-08-14T02:02:58.480Z,1.38
2023-08-14T02:05:24.992Z,1.10
2023-08-14T02:07:51.427Z,1.55
2023-08-14T02:10:17.964Z,1.23
2023-08-14T02:12:44.411Z,1.13
2023-08-14T02:15:10.989Z,1.10
2023-08-14T02:17:37.537Z,1.33
2023-08-14T02:20:04.449Z,1.80
2023-08-14T02:22:30.905Z,1.40
2023-08-14T02:24:57.401Z,1.90
2023-08-14T02:27:23.895Z,2.55
2023-08-14T02:29:50.302Z,1.90
2023-08-14T02:32:17.116Z,1.95
2023-08-14T02:34:44.954Z,2.30
2023-08-14T02:37:12.672Z,2.23
2023-08-14T02:39:39.343Z,1.60
2023-08-14T02:42:05.939Z,1.85
2023-08-14T02:44:32.507Z,2.20
2023-08-14T02:46:59.621Z,1.90
2023-08-14T02:49:26.323Z,1.90
2023-08-14T02:51:53.500Z,1.90
2023-08-14T02:54:20.042Z,1.95
2023-08-14T02:56:47.287Z,1.77
2023-08-14T02:59:13.763Z,1.83
2023-08-14T03:01:40.282Z,1.58
2023-08-14T03:04:06.925Z,1.33
2023-08-14T03:06:33.586Z,1.30
2023-08-14T03:09:00.310Z,1.15
2023-08-14T03:11:27.197Z,1.50
2023-08-14T03:13:54.014Z,0.97
2023-08-14T03:16:20.584Z,1.30
2023-08-14T03:18:47.118Z,1.23
2023-08-14T03:21:13.794Z,0.68
2023-08-14T03:23:40.220Z,1.20
2023-08-14T03:26:06.924Z,1.30
2023-08-14T03:28:33.395Z,1.13
2023-08-14T03:30:59.814Z,1.00
2023-08-14T03:33:26.280Z,1.00
2023-08-14T03:35:55.906Z,1.00
2023-08-14T03:38:22.845Z,1.13
2023-08-14T03:40:49.281Z,1.30
2023-08-14T03:43:15.783Z,1.60
2023-08-14T03:45:42.205Z,1.58
2023-08-14T03:48:08.725Z,1.30
2023-08-14T03:50:35.242Z,1.33
2023-08-14T03:53:01.701Z,1.30
2023-08-14T03:55:28.131Z,1.05
2023-08-14T03:57:55.675Z,1.60
2023-08-14T04:00:22.170Z,1.85
2023-08-14T04:02:48.786Z,2.28
2023-08-14T04:05:16.041Z,2.00
2023-08-14T04:07:42.479Z,2.45
2023-08-14T04:10:09.027Z,2.13
2023-08-14T04:12:35.599Z,2.25
2023-08-14T04:15:17.961Z,2.40
2023-08-14T04:17:44.909Z,2.28
2023-08-14T04:20:12.209Z,2.40
2023-08-14T04:22:38.826Z,2.05
2023-08-14T04:25:05.838Z,2.30
2023-08-14T04:27:32.797Z,2.83
2023-08-14T04:29:59.230Z,2.35
2023-08-14T04:32:25.774Z,2.38
2023-08-14T04:34:52.281Z,3.15
2023-08-14T04:37:18.747Z,2.10
2023-08-14T04:39:45.220Z,2.35
2023-08-14T04:42:11.704Z,2.33
2023-08-14T04:44:38.164Z,2.90
2023-08-14T04:47:04.772Z,2.58
2023-08-14T04:49:31.293Z,2.17
2023-08-14T04:51:57.737Z,2.47
2023-08-14T04:54:24.279Z,2.38
2023-08-14T04:56:50.770Z,3.80
2023-08-14T04:59:17.605Z,3.42
2023-08-14T05:01:44.147Z,2.95
2023-08-14T05:04:10.756Z,3.20
2023-08-14T05:06:37.350Z,3.33
2023-08-14T05:09:16.077Z,3.30
2023-08-14T05:11:47.178Z,3.45
2023-08-14T05:14:13.774Z,3.60
2023-08-14T05:16:40.272Z,3.43
2023-08-14T05:19:06.783Z,4.28
2023-08-14T05:21:33.245Z,3.95
2023-08-14T05:23:59.673Z,4.00
2023-08-14T05:26:28.636Z,3.92
2023-08-14T05:28:55.216Z,4.10
2023-08-14T05:31:21.850Z,4.40
2023-08-14T05:33:48.312Z,4.10
2023-08-14T05:36:14.813Z,4.38
2023-08-14T05:38:41.291Z,4.38
2023-08-14T05:41:07.730Z,4.53
2023-08-14T05:43:34.119Z,4.70
2023-08-14T05:46:00.763Z,5.32
2023-08-14T05:48:27.274Z,4.80
2023-08-14T05:50:53.750Z,5.95
2023-08-14T05:53:20.276Z,5.47
2023-08-14T05:55:46.965Z,5.20
2023-08-14T05:58:13.386Z,5.25
2023-08-14T06:00:40.215Z,4.70
2023-08-14T06:03:07.228Z,4.78
2023-08-14T06:05:35.444Z,4.90
2023-08-14T06:08:02.888Z,5.05
2023-08-14T06:10:29.321Z,5.03
2023-08-14T06:12:55.760Z,5.00
2023-08-14T06:15:22.456Z,5.18
2023-08-14T06:17:49.950Z,6.30
2023-08-14T06:20:16.935Z,5.85
2023-08-14T06:22:45.088Z,5.90
2023-08-14T06:25:13.019Z,5.60
2023-08-14T06:27:40.099Z,6.00
2023-08-14T06:30:10.179Z,6.33
2023-08-14T06:32:37.580Z,5.93
2023-08-14T06:35:05.076Z,6.28
2023-08-14T06:37:32.087Z,6.85
2023-08-14T06:39:58.856Z,6.03
2023-08-14T06:42:25.473Z,6.22
2023-08-14T06:44:52.013Z,5.90
2023-08-14T06:47:18.506Z,5.97
2023-08-14T06:49:44.933Z,6.25
2023-08-14T06:52:11.452Z,6.22
2023-08-14T06:54:37.959Z,6.00
2023-08-14T06:57:04.772Z,6.22
2023-08-14T06:59:31.976Z,6.45
2023-08-14T07:01:58.522Z,5.95
2023-08-14T07:04:25.009Z,6.60
2023-08-14T07:06:51.430Z,5.43
2023-08-14T07:09:18.019Z,6.00
2023-08-14T07:11:44.752Z,5.88
2023-08-14T07:14:11.298Z,6.72
2023-08-14T07:16:37.933Z,6.93
2023-08-14T07:19:04.871Z,6.18
2023-08-14T07:21:32.344Z,6.35
2023-08-14T07:23:58.774Z,5.53
2023-08-14T07:26:25.248Z,5.90
2023-08-14T07:28:51.685Z,5.57
2023-08-14T07:31:18.371Z,5.40
2023-08-14T07:33:44.872Z,5.60
2023-08-14T07:36:11.319Z,5.20
2023-08-14T07:38:37.852Z,5.63
2023-08-14T07:41:04.333Z,5.70
2023-08-14T07:43:30.743Z,5.07
2023-08-14T07:45:57.322Z,5.50
2023-08-14T07:48:23.926Z,4.80
2023-08-14T07:50:54.511Z,5.03
2023-08-14T07:53:21.379Z,5.75
2023-08-14T07:55:50.768Z,4.85
2023-08-14T07:58:19.207Z,4.75
2023-08-14T08:00:46.584Z,4.88
2023-08-14T08:03:13.157Z,5.57
2023-08-14T08:05:39.685Z,4.72
2023-08-14T08:08:06.696Z,4.93
2023-08-14T08:10:33.650Z,4.15
2023-08-14T08:13:00.131Z,4.07
2023-08-14T08:15:26.642Z,5.07
2023-08-14T08:17:53.263Z,5.38
2023-08-14T08:20:19.883Z,4.20
2023-08-14T08:22:46.361Z,3.60
2023-08-14T08:25:12.799Z,4.22
2023-08-14T08:27:39.254Z,3.80
2023-08-14T08:30:06.290Z,4.13
2023-08-14T08:32:32.821Z,4.38
2023-08-14T08:34:59.491Z,4.07
2023-08-14T08:37:26.038Z,3.90
2023-08-14T08:39:53.982Z,4.72
2023-08-14T08:42:21.251Z,3.40
2023-08-14T08:44:50.692Z,2.22
2023-08-14T08:47:23.057Z,2.17
2023-08-14T08:49:49.807Z,2.28
2023-08-14T08:52:16.982Z,2.10
2023-08-14T08:54:44.022Z,1.58
2023-08-14T08:57:12.032Z,2.40
2023-08-14T08:59:40.942Z,2.63
2023-08-14T09:02:09.208Z,1.80
2023-08-14T09:04:35.989Z,2.63
2023-08-14T09:07:02.540Z,2.05
2023-08-14T09:09:29.023Z,2.78
2023-08-14T09:11:55.450Z,1.80
2023-08-14T09:14:23.485Z,1.75
2023-08-14T09:16:54.587Z,1.88
2023-08-14T09:19:21.513Z,2.25
2023-08-14T09:21:48.211Z,1.70
2023-08-14T09:24:15.987Z,1.67
2023-08-14T09:26:44.593Z,1.40
2023-08-14T09:29:14.307Z,2.05
2023-08-14T09:31:45.003Z,1.95
2023-08-14T09:34:19.011Z,1.83
2023-08-14T09:36:46.078Z,1.75
2023-08-14T09:39:13.374Z,2.10
2023-08-14T09:41:39.925Z,1.95
2023-08-14T09:44:06.486Z,2.00
2023-08-14T09:46:33.084Z,1.85
2023-08-14T09:48:59.611Z,2.28
2023-08-14T09:51:26.136Z,1.60
2023-08-14T09:53:59.914Z,2.83
2023-08-14T09:56:26.894Z,2.07
2023-08-14T09:58:56.471Z,2.65
2023-08-14T10:01:23.346Z,1.70
2023-08-14T10:03:54.773Z,1.35
2023-08-14T10:06:25.778Z,1.50
2023-08-14T10:08:58.727Z,1.92
2023-08-14T10:11:29.399Z,2.15
2023-08-14T10:14:01.372Z,2.30
2023-08-14T10:16:40.938Z,2.08
2023-08-14T10:19:13.955Z,2.05
2023-08-14T10:21:43.895Z,1.95
2023-08-14T10:24:12.919Z,2.22
2023-08-14T10:26:39.473Z,2.30
2023-08-14T10:29:06.634Z,1.73
2023-08-14T10:31:34.182Z,2.28
2023-08-14T10:34:01.317Z,1.90
2023-08-14T10:36:29.168Z,1.75
2023-08-14T10:39:03.187Z,1.60
2023-08-14T10:41:35.291Z,2.03
2023-08-14T10:44:09.052Z,1.60
2023-08-14T10:46:38.151Z,1.30
2023-08-14T10:49:04.986Z,1.35
2023-08-14T10:51:33.078Z,0.90
2023-08-14T10:54:14.890Z,1.52
2023-08-14T10:56:47.543Z,1.60
2023-08-14T10:59:23.724Z,1.85
2023-08-14T11:01:53.333Z,1.40
2023-08-14T11:04:20.209Z,1.65
2023-08-14T11:07:02.751Z,2.00
2023-08-14T11:09:35.719Z,1.55
2023-08-14T11:12:07.898Z,1.70
2023-08-14T11:14:40.079Z,0.80
2023-08-14T11:17:08.229Z,1.08
2023-08-14T11:19:36.387Z,1.27
2023-08-14T11:22:06.149Z,1.23
2023-08-14T11:24:38.026Z,1.33
2023-08-14T11:27:04.965Z,1.13
2023-08-14T11:29:33.055Z,1.10
2023-08-14T11:32:01.578Z,1.33
2023-08-14T11:34:28.687Z,1.00
2023-08-14T11:37:07.235Z,1.25
2023-08-14T11:39:35.717Z,1.10
2023-08-14T11:42:04.089Z,1.15
2023-08-14T11:44:30.642Z,0.50
2023-08-14T11:46:57.681Z,0.57
2023-08-14T11:49:25.116Z,0.68
2023-08-14T11:51:54.046Z,0.60
2023-08-14T11:54:20.876Z,0.70
2023-08-14T11:56:48.873Z,0.80
2023-08-14T11:59:17.812Z,0.82
2023-08-14T12:01:44.551Z,0.82
2023-08-14T12:04:11.675Z,0.82
2023-08-14T12:06:38.197Z,0.80
2023-08-14T12:09:09.074Z,1.33
2023-08-14T12:11:38.132Z,0.85
2023-08-14T12:14:06.605Z,1.00
2023-08-14T12:16:33.141Z,1.17
2023-08-14T12:18:59.621Z,1.45
2023-08-14T12:21:29.806Z,1.88
2023-08-14T12:23:56.561Z,0.80
2023-08-14T12:26:23.651Z,1.13
2023-08-14T12:28:50.118Z,0.77
2023-08-14T12:31:16.647Z,0.90
2023-08-14T12:33:45.279Z,1.23
2023-08-14T12:36:13.541Z,0.63
2023-08-14T12:38:40.043Z,0.85
2023-08-14T12:41:06.876Z,1.27
2023-08-14T12:43:39.009Z,0.60
2023-08-14T12:46:10.075Z,1.00
2023-08-14T12:48:36.644Z,1.65
2023-08-14T12:51:04.616Z,1.05
2023-08-14T12:53:31.066Z,0.80
2023-08-14T12:56:03.507Z,0.90
2023-08-14T12:58:30.823Z,0.70
2023-08-14T13:00:57.285Z,0.95
2023-08-14T13:03:35.126Z,0.68
2023-08-14T13:06:03.770Z,1.05
2023-08-14T13:08:30.447Z,1.05
2023-08-14T13:10:56.999Z,0.88
2023-08-14T13:13:25.167Z,1.00
2023-08-14T13:15:52.110Z,1.17
2023-08-14T13:18:18.593Z,0.80
2023-08-14T13:20:45.110Z,0.88
2023-08-14T13:23:11.563Z,0.98
2023-08-14T13:25:42.303Z,1.13
2023-08-14T13:28:09.476Z,0.90
2023-08-14T13:30:35.942Z,1.15
2023-08-14T13:33:02.476Z,1.83
2023-08-14T13:35:28.982Z,0.90
2023-08-14T13:37:55.471Z,1.30
2023-08-14T13:40:21.917Z,0.98
2023-08-14T13:42:48.400Z,0.80
2023-08-14T13:45:18.807Z,0.95
2023-08-14T13:47:53.711Z,0.90
2023-08-14T13:50:32.748Z,1.00
2023-08-14T13:53:00.935Z,0.68
2023-08-14T13:55:34.160Z,1.10
2023-08-14T13:58:01.999Z,0.68
2023-08-14T14:00:30.363Z,0.90
2023-08-14T14:02:58.684Z,1.10
2023-08-14T14:05:25.963Z,1.83
2023-08-14T14:07:55.664Z,0.65
2023-08-14T14:10:23.918Z,0.80
2023-08-14T14:15:20.026Z,0.75
2023-08-14T14:17:46.483Z,0.77
2023-08-14T14:20:13.059Z,0.90
2023-08-14T14:22:39.558Z,0.90
2023-08-14T14:25:06.676Z,0.70
2023-08-14T14:27:33.234Z,0.80
2023-08-14T14:29:59.778Z,0.93
2023-08-14T14:32:28.737Z,1.98
2023-08-14T14:34:55.193Z,1.02
2023-08-14T14:37:21.758Z,1.10
2023-08-14T14:39:48.175Z,1.13
2023-08-14T14:42:14.717Z,1.00
2023-08-14T14:44:41.304Z,1.30
2023-08-14T14:47:07.830Z,0.80
2023-08-14T14:49:34.398Z,0.85
2023-08-14T14:52:02.586Z,1.08
2023-08-14T14:54:29.144Z,0.75
2023-08-14T14:56:55.623Z,0.95
2023-08-14T14:59:22.874Z,1.08
2023-08-14T15:01:49.316Z,1.27
2023-08-14T15:04:15.822Z,0.77
2023-08-14T15:06:43.000Z,1.63
2023-08-14T15:09:11.938Z,0.80
2023-08-14T15:11:38.401Z,1.23
2023-08-14T15:14:05.082Z,1.25
2023-08-14T15:16:33.478Z,0.90
2023-08-14T15:19:00.180Z,1.40
2023-08-14T15:21:26.690Z,1.00
2023-08-14T15:23:53.166Z,0.98
2023-08-14T15:26:20.700Z,1.00
2023-08-14T15:28:47.181Z,1.10
2023-08-14T15:31:13.945Z,0.90
2023-08-14T15:33:40.527Z,0.98
2023-08-14T15:36:07.096Z,1.45
2023-08-14T15:38:33.736Z,1.23
2023-08-14T15:41:00.573Z,0.90
2023-08-14T15:43:27.258Z,1.20
2023-08-14T15:46:04.357Z,1.10
2023-08-14T15:48:30.928Z,1.63
2023-08-14T15:50:57.404Z,0.90
2023-08-14T15:53:23.889Z,1.00
2023-08-14T15:55:50.424Z,0.88
2023-08-14T15:58:16.987Z,1.75
2023-08-14T16:00:45.073Z,1.40
2023-08-14T16:03:12.165Z,1.17
2023-08-14T16:05:39.011Z,1.17
2023-08-14T16:08:06.447Z,1.70
2023-08-14T16:10:32.968Z,1.77
2023-08-14T16:12:59.584Z,1.35
2023-08-14T16:15:26.057Z,1.30
2023-08-14T16:17:52.581Z,1.35
2023-08-14T16:20:19.081Z,1.20
2023-08-14T16:22:45.672Z,1.23
2023-08-14T16:25:12.296Z,1.33
2023-08-14T16:27:38.873Z,0.70
2023-08-14T16:30:05.825Z,1.20
2023-08-14T16:32:32.363Z,1.40
2023-08-14T16:34:59.598Z,1.33
2023-08-14T16:37:26.043Z,1.20
2023-08-14T16:39:52.494Z,1.15
2023-08-14T16:42:19.029Z,0.70
2023-08-14T16:44:45.802Z,1.40
2023-08-14T16:47:12.246Z,1.02
2023-08-14T16:49:38.706Z,1.42
2023-08-14T16:52:05.538Z,0.82
2023-08-14T16:54:31.961Z,1.00
2023-08-14T16:56:58.408Z,1.20
2023-08-14T16:59:25.604Z,0.85
2023-08-14T17:01:52.096Z,1.48
2023-08-14T17:04:19.061Z,1.20
2023-08-14T17:06:45.537Z,1.17
2023-08-14T17:09:14.474Z,1.75
2023-08-14T17:11:41.323Z,1.00
2023-08-14T17:14:07.872Z,1.42
2023-08-14T17:16:34.405Z,1.10
2023-08-14T17:19:00.960Z,1.02
2023-08-14T17:21:27.476Z,1.00
2023-08-14T17:23:54.123Z,0.80
2023-08-14T17:26:20.565Z,1.05
2023-08-14T17:28:47.077Z,1.08
2023-08-14T17:31:13.617Z,0.98
2023-08-14T17:33:40.040Z,0.90
2023-08-14T17:36:06.507Z,0.98
2023-08-14T17:38:32.991Z,1.13
2023-08-14T17:40:59.440Z,0.95
2023-08-14T17:43:25.943Z,0.80
2023-08-14T17:45:53.204Z,0.60
2023-08-14T17:48:20.434Z,0.80
2023-08-14T17:50:51.717Z,0.85
2023-08-14T17:53:20.599Z,1.02
2023-08-14T17:55:47.292Z,0.70
2023-08-14T17:58:13.782Z,1.48
2023-08-14T18:00:47.184Z,0.88
2023-08-14T18:03:14.137Z,1.00
2023-08-14T18:05:40.660Z,1.10
2023-08-14T18:08:07.315Z,0.73
2023-08-14T18:10:33.782Z,1.00
2023-08-14T18:13:00.242Z,1.02
2023-08-14T18:15:26.720Z,1.15
2023-08-14T18:17:53.310Z,0.70
2023-08-14T18:20:19.955Z,0.88
2023-08-14T18:22:46.512Z,0.60
2023-08-14T18:25:12.968Z,0.70
2023-08-14T18:27:39.437Z,1.08
2023-08-14T18:30:06.496Z,1.15
2023-08-14T18:32:32.998Z,0.90
2023-08-14T18:34:59.593Z,0.90
2023-08-14T18:37:26.631Z,1.15
2023-08-14T18:39:53.096Z,1.02
2023-08-14T18:42:19.533Z,0.70
2023-08-14T18:44:46.082Z,0.63
2023-08-14T18:47:12.527Z,0.63
2023-08-14T18:49:44.212Z,0.77
2023-08-14T18:52:10.709Z,1.08
2023-08-14T18:54:37.143Z,0.70
2023-08-14T18:57:03.610Z,0.85
2023-08-14T18:59:30.445Z,0.70
2023-08-14T19:01:56.950Z,1.03
2023-08-14T19:04:40.680Z,0.93
2023-08-14T19:07:08.759Z,1.08
2023-08-14T19:09:36.654Z,1.50
2023-08-14T19:12:04.562Z,0.77
2023-08-14T19:14:30.995Z,1.73
2023-08-14T19:16:57.471Z,1.58
2023-08-14T19:19:23.959Z,1.30
2023-08-14T19:21:50.414Z,1.40
2023-08-14T19:24:16.985Z,1.40
2023-08-14T19:26:43.501Z,1.10
2023-08-14T19:29:09.989Z,1.50
2023-08-14T19:31:36.461Z,1.10
2023-08-14T19:34:03.931Z,1.15
2023-08-14T19:36:30.718Z,1.17
2023-08-14T19:38:58.113Z,1.40
2023-08-14T19:41:25.641Z,1.35
2023-08-14T19:43:52.228Z,1.92
2023-08-14T19:46:18.841Z,1.58
2023-08-14T19:48:45.471Z,1.10
2023-08-14T19:51:12.307Z,1.00
2023-08-14T19:53:38.760Z,1.17
2023-08-14T19:56:05.333Z,1.35
2023-08-14T19:58:32.379Z,0.90
2023-08-14T20:00:59.693Z,1.40
2023-08-14T20:03:26.685Z,0.93
2023-08-14T20:05:53.261Z,1.25
2023-08-14T20:08:24.549Z,0.90
2023-08-14T20:10:51.511Z,0.90
2023-08-14T20:13:17.996Z,1.75
2023-08-14T20:15:46.043Z,2.13
2023-08-14T20:18:14.164Z,1.42
2023-08-14T20:20:41.599Z,1.27
2023-08-14T20:23:10.382Z,1.30
2023-08-14T20:25:38.145Z,1.30
2023-08-14T20:28:06.342Z,1.23
2023-08-14T20:30:39.335Z,1.63
2023-08-14T20:33:05.972Z,1.38
2023-08-14T20:35:39.463Z,1.27
2023-08-14T20:38:05.964Z,1.37
2023-08-14T20:40:32.422Z,1.40
2023-08-14T20:42:58.861Z,1.20
2023-08-14T20:45:25.261Z,1.50
2023-08-14T20:47:52.168Z,1.08
2023-08-14T20:50:18.695Z,1.33
2023-08-14T20:52:45.155Z,1.90
2023-08-14T20:55:11.841Z,1.50
2023-08-14T20:57:38.247Z,1.83
2023-08-14T21:00:05.054Z,1.80
2023-08-14T21:02:31.530Z,1.35
2023-08-14T21:04:58.074Z,1.43
2023-08-14T21:07:24.511Z,1.67
2023-08-14T21:09:51.245Z,1.27
2023-08-14T21:12:17.715Z,1.10
2023-08-14T21:14:44.214Z,0.65
2023-08-14T21:17:10.656Z,1.07
2023-08-14T21:19:37.133Z,2.13
2023-08-14T21:22:03.698Z,8.77
2023-08-14T21:24:31.189Z,8.93
2023-08-14T21:26:57.673Z,4.30
2023-08-14T21:29:24.083Z,4.17
2023-08-14T21:31:50.569Z,3.40
2023-08-14T21:34:17.347Z,3.20
2023-08-14T21:36:44.354Z,3.72
2023-08-14T21:39:11.196Z,3.35
2023-08-14T21:41:37.854Z,3.37
2023-08-14T21:44:04.625Z,3.30
2023-08-14T21:46:33.639Z,2.72
2023-08-14T21:49:01.685Z,3.35
2023-08-14T21:51:28.242Z,2.65
2023-08-14T21:53:54.835Z,2.47
2023-08-14T21:56:21.292Z,2.13
2023-08-14T21:58:47.749Z,2.10
2023-08-14T22:01:14.302Z,1.90
2023-08-14T22:03:40.780Z,2.88
2023-08-14T22:06:07.214Z,3.33
2023-08-14T22:08:33.649Z,3.45
2023-08-14T22:11:02.334Z,4.25
2023-08-14T22:13:28.771Z,3.35
2023-08-14T22:15:55.577Z,3.50
2023-08-14T22:18:22.243Z,4.67
2023-08-14T22:20:53.828Z,3.45
2023-08-14T22:23:22.785Z,3.75
2023-08-14T22:25:49.713Z,3.85
2023-08-14T22:28:16.218Z,3.70
2023-08-14T22:30:44.248Z,3.90
2023-08-14T22:33:11.402Z,3.03
2023-08-14T22:35:37.939Z,2.95
2023-08-14T22:38:04.704Z,3.28
2023-08-14T22:40:31.179Z,4.10
2023-08-14T22:42:57.616Z,3.80
2023-08-14T22:45:25.299Z,4.38
2023-08-14T22:47:52.021Z,3.70
2023-08-14T22:50:18.516Z,4.53
2023-08-14T22:52:45.058Z,4.35
2023-08-14T22:55:11.603Z,4.40
2023-08-14T22:57:38.061Z,5.32
2023-08-14T23:00:05.039Z,4.53
2023-08-14T23:02:31.477Z,5.25
2023-08-14T23:04:57.950Z,5.38
2023-08-14T23:07:24.478Z,5.07
2023-08-14T23:09:51.038Z,4.90
2023-08-14T23:12:17.445Z,4.40
2023-08-14T23:14:43.874Z,4.22
2023-08-14T23:17:10.290Z,4.03
2023-08-14T23:19:36.717Z,4.33
2023-08-14T23:22:03.182Z,4.90
2023-08-14T23:24:29.653Z,4.95
2023-08-14T23:26:56.143Z,4.88
2023-08-14T23:29:22.586Z,5.05
2023-08-14T23:31:49.084Z,3.57
2023-08-14T23:34:15.603Z,2.35
2023-08-14T23:36:42.121Z,2.30
2023-08-14T23:39:09.095Z,2.72
2023-08-14T23:41:36.087Z,2.80
2023-08-14T23:44:07.950Z,2.85
2023-08-14T23:46:34.422Z,2.90
2023-08-14T23:49:00.846Z,3.55
2023-08-14T23:51:27.334Z,3.15
2023-08-14T23:53:53.820Z,3.17
2023-08-14T23:56:20.315Z,3.47
2023-08-14T23:58:47.596Z,3.55
